sensor_id;sensor_type;location;lat;lon;timestamp;temperature;humidity
25914;DHT22;13718;50.922;5.346;2023-01-24T00:01:15;4.60;99.90
25914;DHT22;13718;50.922;5.346;2023-01-24T00:03:41;4.30;99.90
25914;DHT22;13718;50.922;5.346;2023-01-24T00:06:07;4.20;99.90
25914;DHT22;13718;50.922;5.346;2023-01-24T00:08:32;4.70;99.90
25914;DHT22;13718;50.922;5.346;2023-01-24T00:11:02;4.60;99.90
25914;DHT22;13718;50.922;5.346;2023-01-24T00:13:27;4.40;99.90
25914;DHT22;13718;50.922;5.346;2023-01-24T00:16:07;4.50;99.90
25914;DHT22;13718;50.922;5.346;2023-01-24T00:18:33;4.30;99.90
25914;DHT22;13718;50.922;5.346;2023-01-24T00:21:17;4.50;99.90
25914;DHT22;13718;50.922;5.346;2023-01-24T00:23:47;4.40;99.90
25914;DHT22;13718;50.922;5.346;2023-01-24T00:26:13;4.40;99.90
25914;DHT22;13718;50.922;5.346;2023-01-24T00:28:38;4.30;99.90
25914;DHT22;13718;50.922;5.346;2023-01-24T00:31:04;4.30;99.90
25914;DHT22;13718;50.922;5.346;2023-01-24T00:33:31;4.70;99.90
25914;DHT22;13718;50.922;5.346;2023-01-24T00:35:57;4.60;99.90
25914;DHT22;13718;50.922;5.346;2023-01-24T00:38:23;4.40;99.90
25914;DHT22;13718;50.922;5.346;2023-01-24T00:40:49;4.30;99.90
25914;DHT22;13718;50.922;5.346;2023-01-24T00:43:14;4.30;99.90
25914;DHT22;13718;50.922;5.346;2023-01-24T00:45:40;4.40;99.90
25914;DHT22;13718;50.922;5.346;2023-01-24T00:48:06;4.40;99.90
25914;DHT22;13718;50.922;5.346;2023-01-24T00:50:34;4.60;99.90
25914;DHT22;13718;50.922;5.346;2023-01-24T00:52:59;4.50;99.90
25914;DHT22;13718;50.922;5.346;2023-01-24T00:55:25;4.50;99.90
25914;DHT22;13718;50.922;5.346;2023-01-24T00:57:51;4.60;99.90
25914;DHT22;13718;50.922;5.346;2023-01-24T01:00:16;4.50;99.90
25914;DHT22;13718;50.922;5.346;2023-01-24T01:02:42;4.40;99.90
25914;DHT22;13718;50.922;5.346;2023-01-24T01:05:07;4.60;99.90
25914;DHT22;13718;50.922;5.346;2023-01-24T01:07:33;4.60;99.90
25914;DHT22;13718;50.922;5.346;2023-01-24T01:09:59;4.40;99.90
25914;DHT22;13718;50.922;5.346;2023-01-24T01:12:24;4.30;99.90
25914;DHT22;13718;50.922;5.346;2023-01-24T01:14:50;4.20;99.90
25914;DHT22;13718;50.922;5.346;2023-01-24T01:17:15;4.30;99.90
25914;DHT22;13718;50.922;5.346;2023-01-24T01:19:42;4.70;99.90
25914;DHT22;13718;50.922;5.346;2023-01-24T01:22:07;4.80;99.90
25914;DHT22;13718;50.922;5.346;2023-01-24T01:24:33;4.70;99.90
25914;DHT22;13718;50.922;5.346;2023-01-24T01:26:59;4.70;99.90
25914;DHT22;13718;50.922;5.346;2023-01-24T01:29:25;4.60;99.90
25914;DHT22;13718;50.922;5.346;2023-01-24T01:31:50;4.80;99.90
25914;DHT22;13718;50.922;5.346;2023-01-24T01:34:16;4.80;99.90
25914;DHT22;13718;50.922;5.346;2023-01-24T01:36:42;4.90;99.90
25914;DHT22;13718;50.922;5.346;2023-01-24T01:39:07;4.80;99.90
25914;DHT22;13718;50.922;5.346;2023-01-24T01:41:32;4.80;99.90
25914;DHT22;13718;50.922;5.346;2023-01-24T01:47:01;4.50;99.90
25914;DHT22;13718;50.922;5.346;2023-01-24T01:49:27;4.90;99.90
25914;DHT22;13718;50.922;5.346;2023-01-24T01:51:54;4.70;99.90
25914;DHT22;13718;50.922;5.346;2023-01-24T01:54:30;4.50;99.90
25914;DHT22;13718;50.922;5.346;2023-01-24T01:57:10;4.30;99.90
25914;DHT22;13718;50.922;5.346;2023-01-24T01:59:39;4.60;99.90
25914;DHT22;13718;50.922;5.346;2023-01-24T02:02:05;4.50;99.90
25914;DHT22;13718;50.922;5.346;2023-01-24T02:04:33;4.70;99.90
25914;DHT22;13718;50.922;5.346;2023-01-24T02:09:25;4.40;99.90
25914;DHT22;13718;50.922;5.346;2023-01-24T02:11:52;4.30;99.90
25914;DHT22;13718;50.922;5.346;2023-01-24T02:14:18;4.40;99.90
25914;DHT22;13718;50.922;5.346;2023-01-24T02:17:03;4.30;99.90
25914;DHT22;13718;50.922;5.346;2023-01-24T02:21:58;4.50;99.90
25914;DHT22;13718;50.922;5.346;2023-01-24T02:24:25;4.50;99.90
25914;DHT22;13718;50.922;5.346;2023-01-24T02:26:55;4.80;99.90
25914;DHT22;13718;50.922;5.346;2023-01-24T02:29:21;4.70;99.90
25914;DHT22;13718;50.922;5.346;2023-01-24T02:31:59;4.70;99.90
25914;DHT22;13718;50.922;5.346;2023-01-24T02:34:26;4.70;99.90
25914;DHT22;13718;50.922;5.346;2023-01-24T02:36:52;4.60;99.90
25914;DHT22;13718;50.922;5.346;2023-01-24T02:39:21;4.80;99.90
25914;DHT22;13718;50.922;5.346;2023-01-24T02:41:52;4.90;99.90
25914;DHT22;13718;50.922;5.346;2023-01-24T02:44:19;5.10;99.90
25914;DHT22;13718;50.922;5.346;2023-01-24T02:46:46;4.90;99.90
25914;DHT22;13718;50.922;5.346;2023-01-24T02:49:11;4.90;99.90
25914;DHT22;13718;50.922;5.346;2023-01-24T02:51:37;4.80;99.90
25914;DHT22;13718;50.922;5.346;2023-01-24T02:54:21;4.50;99.90
25914;DHT22;13718;50.922;5.346;2023-01-24T02:56:47;4.60;99.90
25914;DHT22;13718;50.922;5.346;2023-01-24T02:59:31;4.60;99.90
25914;DHT22;13718;50.922;5.346;2023-01-24T03:01:57;4.70;99.90
25914;DHT22;13718;50.922;5.346;2023-01-24T03:04:22;4.70;99.90
25914;DHT22;13718;50.922;5.346;2023-01-24T03:06:48;4.80;99.90
25914;DHT22;13718;50.922;5.346;2023-01-24T03:09:16;4.90;99.90
25914;DHT22;13718;50.922;5.346;2023-01-24T03:11:48;4.90;99.90
25914;DHT22;13718;50.922;5.346;2023-01-24T03:14:14;4.80;99.90
25914;DHT22;13718;50.922;5.346;2023-01-24T03:16:58;4.70;99.90
25914;DHT22;13718;50.922;5.346;2023-01-24T03:19:43;4.60;99.90
25914;DHT22;13718;50.922;5.346;2023-01-24T03:22:27;4.30;99.90
25914;DHT22;13718;50.922;5.346;2023-01-24T03:25:11;4.10;99.90
25914;DHT22;13718;50.922;5.346;2023-01-24T03:27:55;4.20;99.90
25914;DHT22;13718;50.922;5.346;2023-01-24T03:30:39;4.30;99.90
25914;DHT22;13718;50.922;5.346;2023-01-24T03:33:23;4.70;99.90
25914;DHT22;13718;50.922;5.346;2023-01-24T03:36:08;4.90;99.90
25914;DHT22;13718;50.922;5.346;2023-01-24T03:38:38;4.80;99.90
25914;DHT22;13718;50.922;5.346;2023-01-24T03:41:22;4.80;99.90
25914;DHT22;13718;50.922;5.346;2023-01-24T03:43:48;4.80;99.90
25914;DHT22;13718;50.922;5.346;2023-01-24T03:46:13;4.60;99.90
25914;DHT22;13718;50.922;5.346;2023-01-24T03:48:39;4.60;99.90
25914;DHT22;13718;50.922;5.346;2023-01-24T03:51:04;4.70;99.90
25914;DHT22;13718;50.922;5.346;2023-01-24T03:53:48;4.70;99.90
25914;DHT22;13718;50.922;5.346;2023-01-24T03:56:14;4.60;99.90
25914;DHT22;13718;50.922;5.346;2023-01-24T03:58:39;4.30;99.90
25914;DHT22;13718;50.922;5.346;2023-01-24T04:01:05;4.50;99.90
25914;DHT22;13718;50.922;5.346;2023-01-24T04:03:30;4.60;99.90
25914;DHT22;13718;50.922;5.346;2023-01-24T04:05:57;4.40;99.90
25914;DHT22;13718;50.922;5.346;2023-01-24T04:08:23;4.40;99.90
25914;DHT22;13718;50.922;5.346;2023-01-24T04:10:48;4.40;99.90
25914;DHT22;13718;50.922;5.346;2023-01-24T04:13:14;4.40;99.90
25914;DHT22;13718;50.922;5.346;2023-01-24T04:15:39;4.50;99.90
25914;DHT22;13718;50.922;5.346;2023-01-24T04:18:05;5.00;99.90
25914;DHT22;13718;50.922;5.346;2023-01-24T04:20:33;4.80;99.90
25914;DHT22;13718;50.922;5.346;2023-01-24T04:23:03;4.80;99.90
25914;DHT22;13718;50.922;5.346;2023-01-24T04:25:28;5.00;99.90
25914;DHT22;13718;50.922;5.346;2023-01-24T04:27:54;4.70;99.90
25914;DHT22;13718;50.922;5.346;2023-01-24T04:30:20;5.00;99.90
25914;DHT22;13718;50.922;5.346;2023-01-24T04:32:45;4.70;99.90
25914;DHT22;13718;50.922;5.346;2023-01-24T04:35:18;4.80;99.90
25914;DHT22;13718;50.922;5.346;2023-01-24T04:37:44;4.70;99.90
25914;DHT22;13718;50.922;5.346;2023-01-24T04:40:10;4.70;99.90
25914;DHT22;13718;50.922;5.346;2023-01-24T04:42:37;4.70;99.90
25914;DHT22;13718;50.922;5.346;2023-01-24T04:45:03;4.80;99.90
25914;DHT22;13718;50.922;5.346;2023-01-24T04:47:28;4.60;99.90
25914;DHT22;13718;50.922;5.346;2023-01-24T04:49:54;4.70;99.90
25914;DHT22;13718;50.922;5.346;2023-01-24T04:52:19;4.60;99.90
25914;DHT22;13718;50.922;5.346;2023-01-24T04:54:44;4.50;99.90
25914;DHT22;13718;50.922;5.346;2023-01-24T04:57:10;4.50;99.90
25914;DHT22;13718;50.922;5.346;2023-01-24T04:59:36;4.40;99.90
25914;DHT22;13718;50.922;5.346;2023-01-24T05:02:02;4.60;99.90
25914;DHT22;13718;50.922;5.346;2023-01-24T05:04:28;4.40;99.90
25914;DHT22;13718;50.922;5.346;2023-01-24T05:06:53;4.50;99.90
25914;DHT22;13718;50.922;5.346;2023-01-24T05:09:18;4.30;99.90
25914;DHT22;13718;50.922;5.346;2023-01-24T05:11:44;4.10;99.90
25914;DHT22;13718;50.922;5.346;2023-01-24T05:14:10;4.20;99.90
25914;DHT22;13718;50.922;5.346;2023-01-24T05:16:35;4.30;99.90
25914;DHT22;13718;50.922;5.346;2023-01-24T05:19:01;4.10;99.90
25914;DHT22;13718;50.922;5.346;2023-01-24T05:21:26;4.20;99.90
25914;DHT22;13718;50.922;5.346;2023-01-24T05:23:52;4.00;99.90
25914;DHT22;13718;50.922;5.346;2023-01-24T05:26:19;4.10;99.90
25914;DHT22;13718;50.922;5.346;2023-01-24T05:28:44;4.00;99.90
25914;DHT22;13718;50.922;5.346;2023-01-24T05:31:10;4.20;99.90
25914;DHT22;13718;50.922;5.346;2023-01-24T05:33:35;4.10;99.90
25914;DHT22;13718;50.922;5.346;2023-01-24T05:36:05;4.10;99.90
25914;DHT22;13718;50.922;5.346;2023-01-24T05:38:31;4.40;99.90
25914;DHT22;13718;50.922;5.346;2023-01-24T05:41:00;4.10;99.90
25914;DHT22;13718;50.922;5.346;2023-01-24T05:43:26;3.90;99.90
25914;DHT22;13718;50.922;5.346;2023-01-24T05:45:56;4.20;99.90
25914;DHT22;13718;50.922;5.346;2023-01-24T05:48:21;4.10;99.90
25914;DHT22;13718;50.922;5.346;2023-01-24T05:50:47;4.10;99.90
25914;DHT22;13718;50.922;5.346;2023-01-24T05:53:12;4.20;99.90
25914;DHT22;13718;50.922;5.346;2023-01-24T05:55:38;4.30;99.90
25914;DHT22;13718;50.922;5.346;2023-01-24T05:58:03;4.20;99.90
25914;DHT22;13718;50.922;5.346;2023-01-24T06:00:29;4.30;99.90
25914;DHT22;13718;50.922;5.346;2023-01-24T06:02:54;4.40;99.90
25914;DHT22;13718;50.922;5.346;2023-01-24T06:05:19;4.40;99.90
25914;DHT22;13718;50.922;5.346;2023-01-24T06:07:45;4.30;99.90
25914;DHT22;13718;50.922;5.346;2023-01-24T06:10:10;4.30;99.90
25914;DHT22;13718;50.922;5.346;2023-01-24T06:12:36;3.90;99.90
25914;DHT22;13718;50.922;5.346;2023-01-24T06:15:01;3.70;99.90
25914;DHT22;13718;50.922;5.346;2023-01-24T06:17:27;3.70;99.90
25914;DHT22;13718;50.922;5.346;2023-01-24T06:19:53;3.60;99.90
25914;DHT22;13718;50.922;5.346;2023-01-24T06:24:44;4.00;99.90
25914;DHT22;13718;50.922;5.346;2023-01-24T06:27:09;4.20;99.90
25914;DHT22;13718;50.922;5.346;2023-01-24T06:29:35;4.30;99.90
25914;DHT22;13718;50.922;5.346;2023-01-24T06:37:37;4.20;99.90
25914;DHT22;13718;50.922;5.346;2023-01-24T06:40:07;4.20;99.90
25914;DHT22;13718;50.922;5.346;2023-01-24T06:42:33;4.30;99.90
25914;DHT22;13718;50.922;5.346;2023-01-24T06:44:59;4.30;99.90
25914;DHT22;13718;50.922;5.346;2023-01-24T06:47:25;4.40;99.90
25914;DHT22;13718;50.922;5.346;2023-01-24T06:49:53;4.20;99.90
25914;DHT22;13718;50.922;5.346;2023-01-24T06:52:19;3.90;99.90
25914;DHT22;13718;50.922;5.346;2023-01-24T06:54:44;3.60;99.90
25914;DHT22;13718;50.922;5.346;2023-01-24T06:57:10;3.50;99.90
25914;DHT22;13718;50.922;5.346;2023-01-24T06:59:35;3.50;99.90
25914;DHT22;13718;50.922;5.346;2023-01-24T07:02:01;3.90;99.90
25914;DHT22;13718;50.922;5.346;2023-01-24T07:04:27;4.10;99.90
25914;DHT22;13718;50.922;5.346;2023-01-24T07:06:52;4.00;99.90
25914;DHT22;13718;50.922;5.346;2023-01-24T07:09:18;4.20;99.90
25914;DHT22;13718;50.922;5.346;2023-01-24T07:11:44;4.40;99.90
25914;DHT22;13718;50.922;5.346;2023-01-24T07:14:10;4.30;99.90
25914;DHT22;13718;50.922;5.346;2023-01-24T07:16:35;4.30;99.90
25914;DHT22;13718;50.922;5.346;2023-01-24T07:19:01;4.30;99.90
25914;DHT22;13718;50.922;5.346;2023-01-24T07:21:26;4.40;99.90
25914;DHT22;13718;50.922;5.346;2023-01-24T07:23:52;4.30;99.90
25914;DHT22;13718;50.922;5.346;2023-01-24T07:26:18;4.20;99.90
25914;DHT22;13718;50.922;5.346;2023-01-24T07:28:43;4.00;99.90
25914;DHT22;13718;50.922;5.346;2023-01-24T07:31:10;3.90;99.90
25914;DHT22;13718;50.922;5.346;2023-01-24T07:33:37;4.10;99.90
25914;DHT22;13718;50.922;5.346;2023-01-24T07:36:12;4.10;99.90
25914;DHT22;13718;50.922;5.346;2023-01-24T07:38:38;4.00;99.90
25914;DHT22;13718;50.922;5.346;2023-01-24T07:41:09;4.20;99.90
25914;DHT22;13718;50.922;5.346;2023-01-24T07:43:35;4.20;99.90
25914;DHT22;13718;50.922;5.346;2023-01-24T07:46:01;4.20;99.90
25914;DHT22;13718;50.922;5.346;2023-01-24T07:48:26;4.20;99.90
25914;DHT22;13718;50.922;5.346;2023-01-24T07:50:58;4.00;99.90
25914;DHT22;13718;50.922;5.346;2023-01-24T07:53:25;4.00;99.90
25914;DHT22;13718;50.922;5.346;2023-01-24T07:55:50;4.20;99.90
25914;DHT22;13718;50.922;5.346;2023-01-24T07:58:16;4.10;99.90
25914;DHT22;13718;50.922;5.346;2023-01-24T08:00:41;4.10;99.90
25914;DHT22;13718;50.922;5.346;2023-01-24T08:03:09;4.20;99.90
25914;DHT22;13718;50.922;5.346;2023-01-24T08:05:36;4.10;99.90
25914;DHT22;13718;50.922;5.346;2023-01-24T08:08:01;4.20;99.90
25914;DHT22;13718;50.922;5.346;2023-01-24T08:10:27;4.00;99.90
25914;DHT22;13718;50.922;5.346;2023-01-24T08:12:54;3.80;99.90
25914;DHT22;13718;50.922;5.346;2023-01-24T08:15:20;4.10;99.90
25914;DHT22;13718;50.922;5.346;2023-01-24T08:17:45;4.30;99.90
25914;DHT22;13718;50.922;5.346;2023-01-24T08:20:11;4.20;99.90
25914;DHT22;13718;50.922;5.346;2023-01-24T08:22:37;4.20;99.90
25914;DHT22;13718;50.922;5.346;2023-01-24T08:25:03;4.10;99.90
25914;DHT22;13718;50.922;5.346;2023-01-24T08:27:29;3.90;99.90
25914;DHT22;13718;50.922;5.346;2023-01-24T08:29:54;3.70;99.90
25914;DHT22;13718;50.922;5.346;2023-01-24T08:32:20;3.80;99.90
25914;DHT22;13718;50.922;5.346;2023-01-24T08:34:45;4.00;99.90
25914;DHT22;13718;50.922;5.346;2023-01-24T08:37:11;4.10;99.90
25914;DHT22;13718;50.922;5.346;2023-01-24T08:39:36;4.10;99.90
25914;DHT22;13718;50.922;5.346;2023-01-24T08:42:01;4.20;99.90
25914;DHT22;13718;50.922;5.346;2023-01-24T08:44:27;4.10;99.90
25914;DHT22;13718;50.922;5.346;2023-01-24T08:46:52;4.00;99.90
25914;DHT22;13718;50.922;5.346;2023-01-24T08:49:18;4.10;99.90
25914;DHT22;13718;50.922;5.346;2023-01-24T08:51:43;4.30;99.90
25914;DHT22;13718;50.922;5.346;2023-01-24T08:54:10;4.40;99.90
25914;DHT22;13718;50.922;5.346;2023-01-24T08:56:35;4.50;99.90
25914;DHT22;13718;50.922;5.346;2023-01-24T08:59:01;4.10;99.90
25914;DHT22;13718;50.922;5.346;2023-01-24T09:01:26;4.20;99.90
25914;DHT22;13718;50.922;5.346;2023-01-24T09:03:52;4.30;99.90
25914;DHT22;13718;50.922;5.346;2023-01-24T09:06:20;4.60;99.90
25914;DHT22;13718;50.922;5.346;2023-01-24T09:08:46;4.40;99.90
25914;DHT22;13718;50.922;5.346;2023-01-24T09:11:11;4.20;99.90
25914;DHT22;13718;50.922;5.346;2023-01-24T09:13:37;4.20;99.90
25914;DHT22;13718;50.922;5.346;2023-01-24T09:16:02;4.30;99.90
25914;DHT22;13718;50.922;5.346;2023-01-24T09:18:28;4.10;99.90
25914;DHT22;13718;50.922;5.346;2023-01-24T09:20:53;4.20;99.90
25914;DHT22;13718;50.922;5.346;2023-01-24T09:23:19;4.30;99.90
25914;DHT22;13718;50.922;5.346;2023-01-24T09:25:49;4.60;99.90
25914;DHT22;13718;50.922;5.346;2023-01-24T09:28:15;4.40;99.90
25914;DHT22;13718;50.922;5.346;2023-01-24T09:30:46;4.20;99.90
25914;DHT22;13718;50.922;5.346;2023-01-24T09:33:12;4.30;99.90
25914;DHT22;13718;50.922;5.346;2023-01-24T09:35:37;4.60;99.90
25914;DHT22;13718;50.922;5.346;2023-01-24T09:38:02;4.80;99.90
25914;DHT22;13718;50.922;5.346;2023-01-24T09:40:50;4.60;99.90
25914;DHT22;13718;50.922;5.346;2023-01-24T09:45:49;4.30;99.90
25914;DHT22;13718;50.922;5.346;2023-01-24T09:48:17;4.50;99.90
25914;DHT22;13718;50.922;5.346;2023-01-24T09:50:44;4.60;99.90
25914;DHT22;13718;50.922;5.346;2023-01-24T09:53:19;4.80;99.90
25914;DHT22;13718;50.922;5.346;2023-01-24T09:55:46;4.80;99.90
25914;DHT22;13718;50.922;5.346;2023-01-24T10:00:44;5.00;99.90
25914;DHT22;13718;50.922;5.346;2023-01-24T10:03:20;5.00;99.90
25914;DHT22;13718;50.922;5.346;2023-01-24T10:05:50;5.10;99.90
25914;DHT22;13718;50.922;5.346;2023-01-24T10:24:32;5.30;99.90
25914;DHT22;13718;50.922;5.346;2023-01-24T10:27:00;5.50;99.90
25914;DHT22;13718;50.922;5.346;2023-01-24T10:29:31;5.50;99.90
25914;DHT22;13718;50.922;5.346;2023-01-24T10:32:11;5.20;99.90
25914;DHT22;13718;50.922;5.346;2023-01-24T10:34:39;5.30;99.90
25914;DHT22;13718;50.922;5.346;2023-01-24T10:39:38;4.90;99.90
25914;DHT22;13718;50.922;5.346;2023-01-24T10:42:18;4.70;99.90
25914;DHT22;13718;50.922;5.346;2023-01-24T10:44:44;5.00;99.90
25914;DHT22;13718;50.922;5.346;2023-01-24T10:49:49;5.40;99.90
25914;DHT22;13718;50.922;5.346;2023-01-24T10:52:16;5.40;99.90
25914;DHT22;13718;50.922;5.346;2023-01-24T10:54:43;5.40;99.90
25914;DHT22;13718;50.922;5.346;2023-01-24T10:59:53;5.20;99.90
25914;DHT22;13718;50.922;5.346;2023-01-24T11:02:21;5.10;99.90
25914;DHT22;13718;50.922;5.346;2023-01-24T11:04:47;5.00;99.90
25914;DHT22;13718;50.922;5.346;2023-01-24T11:07:35;5.10;99.90
25914;DHT22;13718;50.922;5.346;2023-01-24T11:10:19;5.20;99.90
25914;DHT22;13718;50.922;5.346;2023-01-24T11:15:22;5.20;99.90
25914;DHT22;13718;50.922;5.346;2023-01-24T11:17:48;5.30;99.90
25914;DHT22;13718;50.922;5.346;2023-01-24T11:20:22;5.40;99.90
25914;DHT22;13718;50.922;5.346;2023-01-24T11:22:50;5.40;99.90
25914;DHT22;13718;50.922;5.346;2023-01-24T11:25:16;5.20;99.90
25914;DHT22;13718;50.922;5.346;2023-01-24T11:27:45;5.10;99.90
25914;DHT22;13718;50.922;5.346;2023-01-24T11:30:18;5.20;99.90
25914;DHT22;13718;50.922;5.346;2023-01-24T11:33:00;5.30;99.90
25914;DHT22;13718;50.922;5.346;2023-01-24T11:35:32;5.50;99.90
25914;DHT22;13718;50.922;5.346;2023-01-24T11:40:36;5.30;99.90
25914;DHT22;13718;50.922;5.346;2023-01-24T11:56:31;5.40;99.90
25914;DHT22;13718;50.922;5.346;2023-01-24T12:09:21;6.00;99.90
25914;DHT22;13718;50.922;5.346;2023-01-24T12:21:58;5.60;99.90
25914;DHT22;13718;50.922;5.346;2023-01-24T12:24:24;5.60;99.90
25914;DHT22;13718;50.922;5.346;2023-01-24T12:26:55;5.80;99.90
25914;DHT22;13718;50.922;5.346;2023-01-24T12:34:52;5.80;99.90
25914;DHT22;13718;50.922;5.346;2023-01-24T12:40:07;5.90;99.90
25914;DHT22;13718;50.922;5.346;2023-01-24T12:45:11;5.90;99.90
25914;DHT22;13718;50.922;5.346;2023-01-24T12:47:42;6.00;99.90
25914;DHT22;13718;50.922;5.346;2023-01-24T12:51:13;6.00;99.90
25914;DHT22;13718;50.922;5.346;2023-01-24T12:53:23;6.00;99.90
25914;DHT22;13718;50.922;5.346;2023-01-24T12:56:00;5.90;99.90
25914;DHT22;13718;50.922;5.346;2023-01-24T12:58:32;5.90;99.90
25914;DHT22;13718;50.922;5.346;2023-01-24T13:06:09;5.80;99.90
25914;DHT22;13718;50.922;5.346;2023-01-24T13:13:44;5.60;99.90
25914;DHT22;13718;50.922;5.346;2023-01-24T13:21:24;5.20;99.90
25914;DHT22;13718;50.922;5.346;2023-01-24T13:26:32;5.60;99.90
25914;DHT22;13718;50.922;5.346;2023-01-24T13:34:21;5.70;99.90
25914;DHT22;13718;50.922;5.346;2023-01-24T13:36:49;5.70;99.90
25914;DHT22;13718;50.922;5.346;2023-01-24T13:39:34;5.70;99.90
25914;DHT22;13718;50.922;5.346;2023-01-24T13:42:02;5.60;99.90
25914;DHT22;13718;50.922;5.346;2023-01-24T13:44:29;5.40;99.90
25914;DHT22;13718;50.922;5.346;2023-01-24T13:47:04;5.40;99.90
25914;DHT22;13718;50.922;5.346;2023-01-24T13:55:01;5.40;99.90
25914;DHT22;13718;50.922;5.346;2023-01-24T13:57:31;5.30;99.90
25914;DHT22;13718;50.922;5.346;2023-01-24T14:07:55;4.80;99.90
25914;DHT22;13718;50.922;5.346;2023-01-24T14:10:37;4.70;99.90
25914;DHT22;13718;50.922;5.346;2023-01-24T14:13:03;4.70;99.90
25914;DHT22;13718;50.922;5.346;2023-01-24T14:15:38;4.80;99.90
25914;DHT22;13718;50.922;5.346;2023-01-24T14:18:38;5.00;99.90
25914;DHT22;13718;50.922;5.346;2023-01-24T14:20:50;5.30;99.90
25914;DHT22;13718;50.922;5.346;2023-01-24T14:23:18;5.00;99.90
25914;DHT22;13718;50.922;5.346;2023-01-24T14:25:54;5.10;99.90
25914;DHT22;13718;50.922;5.346;2023-01-24T14:28:25;4.90;99.90
25914;DHT22;13718;50.922;5.346;2023-01-24T14:30:56;5.30;99.90
25914;DHT22;13718;50.922;5.346;2023-01-24T14:36:13;5.20;99.90
25914;DHT22;13718;50.922;5.346;2023-01-24T14:38:41;4.90;99.90
25914;DHT22;13718;50.922;5.346;2023-01-24T14:41:11;5.00;99.90
25914;DHT22;13718;50.922;5.346;2023-01-24T14:43:42;5.20;99.90
25914;DHT22;13718;50.922;5.346;2023-01-24T14:46:08;5.40;99.90
25914;DHT22;13718;50.922;5.346;2023-01-24T14:48:34;5.30;99.90
25914;DHT22;13718;50.922;5.346;2023-01-24T14:51:04;5.30;99.90
25914;DHT22;13718;50.922;5.346;2023-01-24T14:53:31;5.00;99.90
25914;DHT22;13718;50.922;5.346;2023-01-24T14:56:08;5.10;99.90
25914;DHT22;13718;50.922;5.346;2023-01-24T14:58:34;5.40;99.90
25914;DHT22;13718;50.922;5.346;2023-01-24T15:01:00;5.10;99.90
25914;DHT22;13718;50.922;5.346;2023-01-24T15:03:28;5.20;99.90
25914;DHT22;13718;50.922;5.346;2023-01-24T15:06:04;5.30;99.90
25914;DHT22;13718;50.922;5.346;2023-01-24T15:08:30;5.20;99.90
25914;DHT22;13718;50.922;5.346;2023-01-24T15:10:58;5.30;99.90
25914;DHT22;13718;50.922;5.346;2023-01-24T15:13:26;5.10;99.90
25914;DHT22;13718;50.922;5.346;2023-01-24T15:15:53;5.20;99.90
25914;DHT22;13718;50.922;5.346;2023-01-24T15:18:34;5.20;99.90
25914;DHT22;13718;50.922;5.346;2023-01-24T15:21:00;5.20;99.90
25914;DHT22;13718;50.922;5.346;2023-01-24T15:23:27;5.20;99.90
25914;DHT22;13718;50.922;5.346;2023-01-24T15:25:53;5.10;99.90
25914;DHT22;13718;50.922;5.346;2023-01-24T15:28:23;5.00;99.90
25914;DHT22;13718;50.922;5.346;2023-01-24T15:30:52;4.90;99.90
25914;DHT22;13718;50.922;5.346;2023-01-24T15:33:18;4.70;99.90
25914;DHT22;13718;50.922;5.346;2023-01-24T15:35:47;4.90;99.90
25914;DHT22;13718;50.922;5.346;2023-01-24T15:38:17;4.70;99.90
25914;DHT22;13718;50.922;5.346;2023-01-24T15:40:45;4.80;99.90
25914;DHT22;13718;50.922;5.346;2023-01-24T15:43:14;4.80;99.90
25914;DHT22;13718;50.922;5.346;2023-01-24T15:45:59;4.80;99.90
25914;DHT22;13718;50.922;5.346;2023-01-24T15:48:56;4.90;99.90
25914;DHT22;13718;50.922;5.346;2023-01-24T15:51:27;4.80;99.90
25914;DHT22;13718;50.922;5.346;2023-01-24T15:53:53;4.70;99.90
25914;DHT22;13718;50.922;5.346;2023-01-24T15:56:20;4.50;99.90
25914;DHT22;13718;50.922;5.346;2023-01-24T15:58:46;4.70;99.90
25914;DHT22;13718;50.922;5.346;2023-01-24T16:01:12;4.70;99.90
25914;DHT22;13718;50.922;5.346;2023-01-24T16:03:38;4.50;99.90
25914;DHT22;13718;50.922;5.346;2023-01-24T16:06:03;4.40;99.90
25914;DHT22;13718;50.922;5.346;2023-01-24T16:08:29;4.50;99.90
25914;DHT22;13718;50.922;5.346;2023-01-24T16:10:54;4.50;99.90
25914;DHT22;13718;50.922;5.346;2023-01-24T16:15:48;4.80;99.90
25914;DHT22;13718;50.922;5.346;2023-01-24T16:18:14;4.80;99.90
25914;DHT22;13718;50.922;5.346;2023-01-24T16:20:39;4.70;99.90
25914;DHT22;13718;50.922;5.346;2023-01-24T16:23:05;4.50;99.90
25914;DHT22;13718;50.922;5.346;2023-01-24T16:25:30;4.60;99.90
25914;DHT22;13718;50.922;5.346;2023-01-24T16:27:55;4.60;99.90
25914;DHT22;13718;50.922;5.346;2023-01-24T16:30:22;4.50;99.90
25914;DHT22;13718;50.922;5.346;2023-01-24T16:32:48;4.40;99.90
25914;DHT22;13718;50.922;5.346;2023-01-24T16:35:13;4.40;99.90
25914;DHT22;13718;50.922;5.346;2023-01-24T16:37:39;4.30;99.90
25914;DHT22;13718;50.922;5.346;2023-01-24T16:40:05;4.10;99.90
25914;DHT22;13718;50.922;5.346;2023-01-24T16:42:30;4.10;99.90
25914;DHT22;13718;50.922;5.346;2023-01-24T16:44:59;3.80;99.90
25914;DHT22;13718;50.922;5.346;2023-01-24T16:47:25;3.90;99.90
25914;DHT22;13718;50.922;5.346;2023-01-24T16:49:54;4.30;99.90
25914;DHT22;13718;50.922;5.346;2023-01-24T16:52:20;4.50;99.90
25914;DHT22;13718;50.922;5.346;2023-01-24T16:54:46;4.20;99.90
25914;DHT22;13718;50.922;5.346;2023-01-24T16:57:11;4.00;99.90
25914;DHT22;13718;50.922;5.346;2023-01-24T16:59:37;4.10;99.90
25914;DHT22;13718;50.922;5.346;2023-01-24T17:02:02;4.20;99.90
25914;DHT22;13718;50.922;5.346;2023-01-24T17:04:28;4.40;99.90
25914;DHT22;13718;50.922;5.346;2023-01-24T17:06:54;4.50;99.90
25914;DHT22;13718;50.922;5.346;2023-01-24T17:09:24;4.40;99.90
25914;DHT22;13718;50.922;5.346;2023-01-24T17:11:50;4.40;99.90
25914;DHT22;13718;50.922;5.346;2023-01-24T17:14:15;4.40;99.90
25914;DHT22;13718;50.922;5.346;2023-01-24T17:16:41;4.30;99.90
25914;DHT22;13718;50.922;5.346;2023-01-24T17:19:06;4.10;99.90
25914;DHT22;13718;50.922;5.346;2023-01-24T17:21:32;3.90;99.90
25914;DHT22;13718;50.922;5.346;2023-01-24T17:23:57;4.10;99.90
25914;DHT22;13718;50.922;5.346;2023-01-24T17:26:23;3.90;99.90
25914;DHT22;13718;50.922;5.346;2023-01-24T17:28:49;3.90;99.90
25914;DHT22;13718;50.922;5.346;2023-01-24T17:31:18;3.70;99.90
25914;DHT22;13718;50.922;5.346;2023-01-24T17:33:44;3.70;99.90
25914;DHT22;13718;50.922;5.346;2023-01-24T17:36:10;3.80;99.90
25914;DHT22;13718;50.922;5.346;2023-01-24T17:38:40;4.10;99.90
25914;DHT22;13718;50.922;5.346;2023-01-24T17:41:08;4.50;99.90
25914;DHT22;13718;50.922;5.346;2023-01-24T17:43:35;4.30;99.90
25914;DHT22;13718;50.922;5.346;2023-01-24T17:46:01;4.20;99.90
25914;DHT22;13718;50.922;5.346;2023-01-24T17:48:26;4.30;99.90
25914;DHT22;13718;50.922;5.346;2023-01-24T17:50:52;4.30;99.90
25914;DHT22;13718;50.922;5.346;2023-01-24T17:53:18;4.10;99.90
25914;DHT22;13718;50.922;5.346;2023-01-24T17:55:44;4.40;99.90
25914;DHT22;13718;50.922;5.346;2023-01-24T17:58:10;4.30;99.90
25914;DHT22;13718;50.922;5.346;2023-01-24T18:00:36;4.50;99.90
25914;DHT22;13718;50.922;5.346;2023-01-24T18:03:01;4.50;99.90
25914;DHT22;13718;50.922;5.346;2023-01-24T18:05:27;4.50;99.90
25914;DHT22;13718;50.922;5.346;2023-01-24T18:07:52;4.40;99.90